createdAt,value
2019-06-26T00:00:18.891Z,1014.70
2019-06-26T00:01:18.877Z,1014.70
2019-06-26T00:02:18.858Z,1014.73
2019-06-26T00:03:18.847Z,1014.72
2019-06-26T00:04:18.837Z,1014.69
2019-06-26T00:05:18.900Z,1014.71
2019-06-26T00:06:18.815Z,1014.79
2019-06-26T00:07:18.827Z,1014.76
2019-06-26T00:08:18.793Z,1014.74
2019-06-26T00:09:18.784Z,1014.73
2019-06-26T00:10:18.781Z,1014.78
2019-06-26T00:11:18.762Z,1014.79
2019-06-26T00:12:18.777Z,1014.76
2019-06-26T00:13:26.210Z,1014.78
2019-06-26T00:14:19.727Z,1014.75
2019-06-26T00:15:18.728Z,1014.79
2019-06-26T00:16:18.707Z,1014.82
2019-06-26T00:17:18.700Z,1014.81
2019-06-26T00:18:18.691Z,1014.73
2019-06-26T00:19:18.680Z,1014.80
2019-06-26T00:20:18.677Z,1014.82
2019-06-26T00:21:21.866Z,1014.77
2019-06-26T00:22:18.644Z,1014.78
2019-06-26T00:23:18.632Z,1014.77
2019-06-26T00:24:18.622Z,1014.81
2019-06-26T00:25:18.618Z,1014.79
2019-06-26T00:26:18.601Z,1014.80
2019-06-26T00:27:18.588Z,1014.87
2019-06-26T00:28:18.581Z,1014.86
2019-06-26T00:29:18.568Z,1014.85
2019-06-26T00:30:18.572Z,1014.89
2019-06-26T00:31:18.547Z,1014.87
2019-06-26T00:32:18.540Z,1014.88
2019-06-26T00:33:18.532Z,1014.87
2019-06-26T00:34:18.514Z,1014.90
2019-06-26T00:35:18.513Z,1014.87
2019-06-26T00:36:18.493Z,1014.91
2019-06-26T00:37:18.482Z,1014.88
2019-06-26T00:38:18.470Z,1014.89
2019-06-26T00:39:18.539Z,1014.87
2019-06-26T00:40:18.464Z,1014.95
2019-06-26T00:41:18.439Z,1014.93
2019-06-26T00:42:18.426Z,1014.94
2019-06-26T00:43:18.414Z,1014.90
2019-06-26T00:44:18.409Z,1014.93
2019-06-26T00:45:18.393Z,1014.98
2019-06-26T00:46:18.393Z,1015.03
2019-06-26T00:47:18.370Z,1014.94
2019-06-26T00:48:18.360Z,1014.94
2019-06-26T00:49:18.350Z,1014.98
2019-06-26T00:50:18.338Z,1014.98
2019-06-26T00:51:18.336Z,1014.97
2019-06-26T00:52:18.317Z,1014.95
2019-06-26T00:53:18.306Z,1014.97
2019-06-26T00:54:18.300Z,1014.98
2019-06-26T00:55:18.283Z,1015.02
2019-06-26T00:56:18.281Z,1014.95
2019-06-26T00:57:18.262Z,1014.98
2019-06-26T00:58:18.256Z,1015.00
2019-06-26T00:59:18.241Z,1015.01
2019-06-26T01:00:18.229Z,1015.00
2019-06-26T01:01:18.231Z,1015.09
2019-06-26T01:02:18.208Z,1015.08
2019-06-26T01:03:18.196Z,1015.16
2019-06-26T01:04:18.189Z,1015.17
2019-06-26T01:05:18.229Z,1015.16
2019-06-26T01:06:18.173Z,1015.13
2019-06-26T01:07:18.155Z,1015.17
2019-06-26T01:08:18.143Z,1015.21
2019-06-26T01:09:18.131Z,1015.15
2019-06-26T01:10:18.131Z,1015.12
2019-06-26T01:11:21.521Z,1015.16
2019-06-26T01:12:18.100Z,1015.17
2019-06-26T01:13:18.089Z,1015.19
2019-06-26T01:14:18.077Z,1015.17
2019-06-26T01:15:18.076Z,1015.18
2019-06-26T01:16:18.067Z,1015.21
2019-06-26T01:17:18.045Z,1015.18
2019-06-26T01:18:18.034Z,1015.18
2019-06-26T01:19:18.024Z,1015.24
2019-06-26T01:20:18.012Z,1015.18
2019-06-26T01:21:18.010Z,1015.25
2019-06-26T01:22:17.997Z,1015.27
2019-06-26T01:23:17.979Z,1015.26
2019-06-26T01:24:17.972Z,1015.22
2019-06-26T01:25:17.958Z,1015.24
2019-06-26T01:26:17.969Z,1015.26
2019-06-26T01:27:17.937Z,1015.24
2019-06-26T01:28:17.925Z,1015.25
2019-06-26T01:29:17.914Z,1015.28
2019-06-26T01:30:17.904Z,1015.26
2019-06-26T01:31:17.904Z,1015.29
2019-06-26T01:32:17.954Z,1015.28
2019-06-26T01:33:17.871Z,1015.28
2019-06-26T01:34:17.861Z,1015.23
2019-06-26T01:35:17.851Z,1015.25
2019-06-26T01:36:17.855Z,1015.28
2019-06-26T01:37:17.831Z,1015.27
2019-06-26T01:38:17.816Z,1015.30
2019-06-26T01:39:17.807Z,1015.35
2019-06-26T01:40:17.796Z,1015.31
2019-06-26T01:41:17.804Z,1015.28
2019-06-26T01:42:17.776Z,1015.26
2019-06-26T01:43:17.767Z,1015.31
2019-06-26T01:44:17.756Z,1015.30
2019-06-26T01:45:17.744Z,1015.35
2019-06-26T01:46:17.741Z,1015.38
2019-06-26T01:47:17.718Z,1015.40
2019-06-26T01:48:17.709Z,1015.39
2019-06-26T01:49:17.697Z,1015.39
2019-06-26T01:50:17.687Z,1015.40
2019-06-26T01:51:17.683Z,1015.43
2019-06-26T01:52:17.665Z,1015.35
2019-06-26T01:53:17.654Z,1015.42
2019-06-26T01:54:17.648Z,1015.40
2019-06-26T01:55:17.635Z,1015.36
2019-06-26T01:56:17.628Z,1015.42
2019-06-26T01:57:17.612Z,1015.42
2019-06-26T01:58:17.603Z,1015.38
2019-06-26T01:59:17.589Z,1015.41
2019-06-26T02:00:17.577Z,1015.42
2019-06-26T02:01:17.574Z,1015.41
2019-06-26T02:02:17.555Z,1015.45
2019-06-26T02:03:17.545Z,1015.45
2019-06-26T02:04:17.535Z,1015.47
2019-06-26T02:05:17.522Z,1015.42
2019-06-26T02:06:17.520Z,1015.44
2019-06-26T02:07:17.501Z,1015.43
2019-06-26T02:08:17.491Z,1015.40
2019-06-26T02:09:17.478Z,1015.43
2019-06-26T02:10:17.467Z,1015.44
2019-06-26T02:11:17.469Z,1015.40
2019-06-26T02:12:17.447Z,1015.37
2019-06-26T02:13:17.435Z,1015.40
2019-06-26T02:14:30.480Z,1015.40
2019-06-26T02:15:18.413Z,1015.45
2019-06-26T02:16:17.422Z,1015.45
2019-06-26T02:17:17.408Z,1015.41
2019-06-26T02:18:17.378Z,1015.42
2019-06-26T02:19:17.367Z,1015.42
2019-06-26T02:20:17.358Z,1015.42
2019-06-26T02:21:17.349Z,1015.46
2019-06-26T02:22:17.346Z,1015.49
2019-06-26T02:23:17.323Z,1015.51
2019-06-26T02:24:17.314Z,1015.48
2019-06-26T02:25:17.301Z,1015.50
2019-06-26T02:26:17.291Z,1015.50
2019-06-26T02:27:17.287Z,1015.49
2019-06-26T02:28:17.267Z,1015.58
2019-06-26T02:29:17.257Z,1015.55
2019-06-26T02:30:17.251Z,1015.62
2019-06-26T02:31:17.234Z,1015.58
2019-06-26T02:32:17.232Z,1015.59
2019-06-26T02:33:17.212Z,1015.59
2019-06-26T02:34:17.205Z,1015.56
2019-06-26T02:35:17.198Z,1015.57
2019-06-26T02:36:17.181Z,1015.62
2019-06-26T02:37:17.181Z,1015.57
2019-06-26T02:38:17.162Z,1015.64
2019-06-26T02:39:17.148Z,1015.63
2019-06-26T02:40:17.183Z,1015.62
2019-06-26T02:41:17.124Z,1015.59
2019-06-26T02:42:17.120Z,1015.66
2019-06-26T02:43:17.108Z,1015.69
2019-06-26T02:44:17.099Z,1015.62
2019-06-26T02:45:17.079Z,1015.58
2019-06-26T02:46:17.067Z,1015.65
2019-06-26T02:47:20.152Z,1015.67
2019-06-26T02:48:17.056Z,1015.63
2019-06-26T02:49:17.035Z,1015.65
2019-06-26T02:50:17.024Z,1015.65
2019-06-26T02:51:17.013Z,1015.70
2019-06-26T02:52:17.023Z,1015.68
2019-06-26T02:53:16.991Z,1015.73
2019-06-26T02:54:16.987Z,1015.70
2019-06-26T02:55:16.968Z,1015.68
2019-06-26T02:56:16.961Z,1015.68
2019-06-26T02:57:16.993Z,1015.70
2019-06-26T02:58:16.935Z,1015.72
2019-06-26T02:59:16.925Z,1015.71
2019-06-26T03:00:16.914Z,1015.70
2019-06-26T03:01:16.908Z,1015.68
2019-06-26T03:02:16.888Z,1015.68
2019-06-26T03:03:16.890Z,1015.66
2019-06-26T03:04:16.867Z,1015.68
2019-06-26T03:05:16.856Z,1015.72
2019-06-26T03:06:16.844Z,1015.72
2019-06-26T03:07:16.835Z,1015.72
2019-06-26T03:08:16.831Z,1015.71
2019-06-26T03:09:16.813Z,1015.71
2019-06-26T03:10:16.799Z,1015.73
2019-06-26T03:11:16.788Z,1015.74
2019-06-26T03:12:16.787Z,1015.77
2019-06-26T03:13:16.777Z,1015.79
2019-06-26T03:14:16.756Z,1015.87
2019-06-26T03:15:16.744Z,1015.91
2019-06-26T03:16:16.737Z,1015.92
2019-06-26T03:17:16.721Z,1015.87
2019-06-26T03:18:16.720Z,1015.89
2019-06-26T03:19:16.700Z,1015.90
2019-06-26T03:20:16.689Z,1015.91
2019-06-26T03:21:16.678Z,1015.94
2019-06-26T03:22:16.665Z,1016.00
2019-06-26T03:23:16.666Z,1016.01
2019-06-26T03:24:16.645Z,1015.94
2019-06-26T03:25:16.632Z,1016.05
2019-06-26T03:26:16.621Z,1016.02
2019-06-26T03:27:16.610Z,1016.03
2019-06-26T03:28:16.609Z,1016.03
2019-06-26T03:29:16.587Z,1016.05
2019-06-26T03:30:16.580Z,1016.12
2019-06-26T03:31:16.571Z,1016.08
2019-06-26T03:32:16.557Z,1016.10
2019-06-26T03:33:16.557Z,1016.08
2019-06-26T03:34:16.535Z,1016.15
2019-06-26T03:35:16.524Z,1016.13
2019-06-26T03:36:16.513Z,1016.17
2019-06-26T03:37:16.517Z,1016.14
2019-06-26T03:38:16.501Z,1016.14
2019-06-26T03:39:16.478Z,1016.17
2019-06-26T03:40:16.467Z,1016.12
2019-06-26T03:41:16.496Z,1016.13
2019-06-26T03:42:16.444Z,1016.16
2019-06-26T03:43:16.442Z,1016.19
2019-06-26T03:44:16.421Z,1016.19
2019-06-26T03:45:25.523Z,1016.21
2019-06-26T03:46:17.398Z,1016.18
2019-06-26T03:47:16.389Z,1016.21
2019-06-26T03:48:16.387Z,1016.24
2019-06-26T03:49:16.367Z,1016.27
2019-06-26T03:50:16.361Z,1016.24
2019-06-26T03:51:16.345Z,1016.30
2019-06-26T03:52:16.334Z,1016.29
2019-06-26T03:53:16.333Z,1016.23
2019-06-26T03:54:16.315Z,1016.31
2019-06-26T03:55:16.306Z,1016.28
2019-06-26T03:56:16.291Z,1016.31
2019-06-26T03:57:16.285Z,1016.32
2019-06-26T03:58:16.286Z,1016.27
2019-06-26T03:59:16.260Z,1016.30
2019-06-26T04:00:16.248Z,1016.33
2019-06-26T04:01:16.275Z,1016.33
2019-06-26T04:02:16.227Z,1016.34
2019-06-26T04:03:16.328Z,1016.31
2019-06-26T04:04:16.229Z,1016.31
2019-06-26T04:05:16.190Z,1016.31
2019-06-26T04:06:16.180Z,1016.27
2019-06-26T04:07:16.170Z,1016.38
2019-06-26T04:08:16.192Z,1016.39
2019-06-26T04:09:16.155Z,1016.39
2019-06-26T04:10:16.136Z,1016.40
2019-06-26T04:11:16.128Z,1016.38
2019-06-26T04:12:16.117Z,1016.31
2019-06-26T04:13:16.102Z,1016.39
2019-06-26T04:14:16.104Z,1016.39
2019-06-26T04:15:16.080Z,1016.40
2019-06-26T04:16:16.068Z,1016.45
2019-06-26T04:17:16.071Z,1016.40
2019-06-26T04:18:16.047Z,1016.44
2019-06-26T04:19:16.045Z,1016.44
2019-06-26T04:20:16.025Z,1016.43
2019-06-26T04:21:16.013Z,1016.45
2019-06-26T04:22:16.005Z,1016.50
2019-06-26T04:23:15.991Z,1016.48
2019-06-26T04:24:15.990Z,1016.47
2019-06-26T04:25:15.970Z,1016.56
2019-06-26T04:26:16.021Z,1016.55
2019-06-26T04:27:15.951Z,1016.56
2019-06-26T04:28:15.939Z,1016.55
2019-06-26T04:29:15.947Z,1016.60
2019-06-26T04:30:15.913Z,1016.58
2019-06-26T04:31:15.903Z,1016.60
2019-06-26T04:32:15.894Z,1016.63
2019-06-26T04:33:15.887Z,1016.66
2019-06-26T04:34:15.945Z,1016.60
2019-06-26T04:35:15.859Z,1016.66
2019-06-26T04:36:15.846Z,1016.58
2019-06-26T04:37:15.836Z,1016.61
2019-06-26T04:38:15.838Z,1016.62
2019-06-26T04:39:15.822Z,1016.63
2019-06-26T04:40:15.813Z,1016.61
2019-06-26T04:41:15.791Z,1016.61
2019-06-26T04:42:15.780Z,1016.65
2019-06-26T04:43:15.771Z,1016.70
2019-06-26T04:44:15.769Z,1016.66
2019-06-26T04:45:15.748Z,1016.68
2019-06-26T04:46:15.737Z,1016.68
2019-06-26T04:47:15.728Z,1016.66
2019-06-26T04:48:15.720Z,1016.68
2019-06-26T04:49:15.715Z,1016.69
2019-06-26T04:50:15.697Z,1016.71
2019-06-26T04:51:15.682Z,1016.69
2019-06-26T04:52:15.673Z,1016.75
2019-06-26T04:53:15.658Z,1016.65
2019-06-26T04:54:15.650Z,1016.72
2019-06-26T04:55:15.676Z,1016.65
2019-06-26T04:56:15.625Z,1016.74
2019-06-26T04:57:15.614Z,1016.72
2019-06-26T04:58:15.606Z,1016.70
2019-06-26T04:59:15.592Z,1016.66
2019-06-26T05:00:15.590Z,1016.69
2019-06-26T05:01:15.571Z,1016.73
2019-06-26T05:02:15.559Z,1016.70
2019-06-26T05:03:15.553Z,1016.74
2019-06-26T05:04:15.540Z,1016.72
2019-06-26T05:05:15.535Z,1016.76
2019-06-26T05:06:15.515Z,1016.73
2019-06-26T05:07:15.514Z,1016.73
2019-06-26T05:08:15.549Z,1016.76
2019-06-26T05:09:15.483Z,1016.77
2019-06-26T05:10:15.484Z,1016.77
2019-06-26T05:11:15.464Z,1016.71
2019-06-26T05:12:15.455Z,1016.76
2019-06-26T05:13:15.438Z,1016.76
2019-06-26T05:14:15.430Z,1016.80
2019-06-26T05:15:15.423Z,1016.83
2019-06-26T05:16:19.257Z,1016.82
2019-06-26T05:17:15.392Z,1016.88
2019-06-26T05:18:15.382Z,1016.85
2019-06-26T05:19:15.392Z,1016.95
2019-06-26T05:20:15.369Z,1016.92
2019-06-26T05:21:15.351Z,1016.93
2019-06-26T05:22:15.454Z,1016.92
2019-06-26T05:23:15.331Z,1016.98
2019-06-26T05:24:15.374Z,1016.90
2019-06-26T05:25:15.363Z,1016.96
2019-06-26T05:26:15.296Z,1016.94
2019-06-26T05:27:15.308Z,1016.96
2019-06-26T05:28:15.314Z,1017.00
2019-06-26T05:29:15.261Z,1017.01
2019-06-26T05:30:15.264Z,1017.00
2019-06-26T05:31:15.239Z,1017.00
2019-06-26T05:32:15.234Z,1017.02
2019-06-26T05:33:15.232Z,1017.01
2019-06-26T05:34:15.206Z,1017.02
2019-06-26T05:35:15.208Z,1017.05
2019-06-26T05:36:15.183Z,1017.02
2019-06-26T05:37:15.171Z,1017.05
2019-06-26T05:38:15.164Z,1017.10
2019-06-26T05:39:15.151Z,1017.10
2019-06-26T05:40:15.141Z,1017.13
2019-06-26T05:41:15.136Z,1017.09
2019-06-26T05:42:15.124Z,1017.08
2019-06-26T05:43:15.106Z,1017.17
2019-06-26T05:44:15.096Z,1017.19
2019-06-26T05:45:15.083Z,1017.04
2019-06-26T05:46:30.056Z,1017.10
2019-06-26T05:47:16.066Z,1017.14
2019-06-26T05:48:17.799Z,1017.12
2019-06-26T05:49:15.101Z,1017.12
2019-06-26T05:50:15.045Z,1017.14
2019-06-26T05:51:15.033Z,1017.14
2019-06-26T05:52:16.740Z,1017.18
2019-06-26T05:53:14.998Z,1017.15
2019-06-26T05:54:15.000Z,1017.21
2019-06-26T05:55:14.976Z,1017.17
2019-06-26T05:56:14.976Z,1017.23
2019-06-26T05:57:14.955Z,1017.20
2019-06-26T05:58:14.947Z,1017.22
2019-06-26T05:59:14.934Z,1017.20
2019-06-26T06:00:14.923Z,1017.16
2019-06-26T06:01:14.919Z,1017.21
2019-06-26T06:02:14.905Z,1017.23
2019-06-26T06:03:14.889Z,1017.28
2019-06-26T06:04:14.880Z,1017.20
2019-06-26T06:05:14.876Z,1017.24
2019-06-26T06:06:14.866Z,1017.22
2019-06-26T06:07:14.846Z,1017.26
2019-06-26T06:08:14.836Z,1017.23
2019-06-26T06:09:14.827Z,1017.32
2019-06-26T06:10:14.816Z,1017.21
2019-06-26T06:11:14.816Z,1017.25
2019-06-26T06:12:14.792Z,1017.27
2019-06-26T06:13:14.781Z,1017.31
2019-06-26T06:14:14.774Z,1017.26
2019-06-26T06:15:14.760Z,1017.30
2019-06-26T06:16:14.763Z,1017.33
2019-06-26T06:17:14.738Z,1017.33
2019-06-26T06:18:14.727Z,1017.34
2019-06-26T06:19:14.718Z,1017.31
2019-06-26T06:20:14.705Z,1017.35
2019-06-26T06:21:14.697Z,1017.30
2019-06-26T06:22:14.693Z,1017.33
2019-06-26T06:23:14.673Z,1017.32
2019-06-26T06:24:14.665Z,1017.30
2019-06-26T06:25:14.655Z,1017.36
2019-06-26T06:26:14.641Z,1017.36
2019-06-26T06:27:14.639Z,1017.34
2019-06-26T06:28:14.619Z,1017.31
2019-06-26T06:29:14.609Z,1017.35
2019-06-26T06:30:14.603Z,1017.39
2019-06-26T06:31:14.588Z,1017.42
2019-06-26T06:32:14.585Z,1017.44
2019-06-26T06:33:14.566Z,1017.39
2019-06-26T06:34:14.556Z,1017.35
2019-06-26T06:35:14.544Z,1017.42
2019-06-26T06:36:14.535Z,1017.46
2019-06-26T06:37:14.534Z,1017.45
2019-06-26T06:38:14.512Z,1017.48
2019-06-26T06:39:14.504Z,1017.46
2019-06-26T06:40:14.490Z,1017.49
2019-06-26T06:41:14.487Z,1017.55
2019-06-26T06:42:14.484Z,1017.57
2019-06-26T06:43:14.462Z,1017.53
2019-06-26T06:44:14.448Z,1017.54
2019-06-26T06:45:14.441Z,1017.59
2019-06-26T06:46:14.428Z,1017.58
2019-06-26T06:47:14.427Z,1017.60
2019-06-26T06:48:14.406Z,1017.56
2019-06-26T06:49:14.395Z,1017.61
2019-06-26T06:50:14.386Z,1017.60
2019-06-26T06:51:14.376Z,1017.59
2019-06-26T06:52:16.649Z,1017.69
2019-06-26T06:53:14.353Z,1017.67
2019-06-26T06:54:14.343Z,1017.67
2019-06-26T06:55:14.334Z,1017.72
2019-06-26T06:56:14.322Z,1017.77
2019-06-26T06:57:14.312Z,1017.71
2019-06-26T06:58:14.310Z,1017.82
2019-06-26T06:59:14.292Z,1017.80
2019-06-26T07:00:14.283Z,1017.75
2019-06-26T07:01:14.271Z,1017.72
2019-06-26T07:02:14.259Z,1017.66
2019-06-26T07:03:14.259Z,1017.61
2019-06-26T07:04:14.240Z,1017.70
2019-06-26T07:05:14.232Z,1017.73
2019-06-26T07:06:14.221Z,1017.74
2019-06-26T07:07:14.206Z,1017.71
2019-06-26T07:08:14.205Z,1017.73
2019-06-26T07:09:14.185Z,1017.77
2019-06-26T07:10:14.177Z,1017.82
2019-06-26T07:11:14.170Z,1017.73
2019-06-26T07:12:14.154Z,1017.80
2019-06-26T07:13:14.154Z,1017.81
2019-06-26T07:14:14.147Z,1017.84
2019-06-26T07:15:14.122Z,1017.79
2019-06-26T07:16:14.121Z,1017.85
2019-06-26T07:17:20.581Z,1017.83
2019-06-26T07:18:15.098Z,1017.81
2019-06-26T07:19:14.080Z,1017.86
2019-06-26T07:20:14.070Z,1017.85
2019-06-26T07:21:14.059Z,1017.86
2019-06-26T07:22:14.054Z,1017.85
2019-06-26T07:23:14.047Z,1017.85
2019-06-26T07:24:14.030Z,1017.85
2019-06-26T07:25:14.021Z,1017.83
2019-06-26T07:26:14.009Z,1017.87
2019-06-26T07:27:13.996Z,1017.90
2019-06-26T07:28:14.082Z,1017.85
2019-06-26T07:29:13.976Z,1017.89
2019-06-26T07:30:13.965Z,1017.88
2019-06-26T07:31:13.957Z,1017.89
2019-06-26T07:32:13.944Z,1017.92
2019-06-26T07:33:13.959Z,1017.98
2019-06-26T07:34:13.923Z,1018.02
2019-06-26T07:35:13.921Z,1018.14
2019-06-26T07:36:13.916Z,1018.10
2019-06-26T07:37:13.898Z,1018.19
2019-06-26T07:38:13.892Z,1018.16
2019-06-26T07:39:13.874Z,1018.22
2019-06-26T07:40:13.862Z,1018.22
2019-06-26T07:41:13.857Z,1018.17
2019-06-26T07:42:13.842Z,1018.14
2019-06-26T07:43:16.426Z,1018.12
2019-06-26T07:44:13.818Z,1018.11
2019-06-26T07:45:13.810Z,1018.09
2019-06-26T07:46:13.798Z,1018.12
2019-06-26T07:47:22.970Z,1018.12
2019-06-26T07:48:14.791Z,1018.11
2019-06-26T07:49:13.767Z,1018.14
2019-06-26T07:50:13.760Z,1018.14
2019-06-26T07:51:13.745Z,1018.14
2019-06-26T07:52:13.735Z,1018.22
2019-06-26T07:53:13.726Z,1018.15
2019-06-26T07:54:13.730Z,1018.19
2019-06-26T07:55:13.710Z,1018.06
2019-06-26T07:56:13.698Z,1018.14
2019-06-26T07:57:13.686Z,1018.12
2019-06-26T07:58:13.673Z,1018.14
2019-06-26T07:59:13.680Z,1018.15
2019-06-26T08:00:13.653Z,1018.17
2019-06-26T08:01:13.647Z,1018.19
2019-06-26T08:02:13.636Z,1018.17
2019-06-26T08:03:13.624Z,1018.24
2019-06-26T08:04:13.622Z,1018.16
2019-06-26T08:05:13.607Z,1018.15
2019-06-26T08:06:13.592Z,1018.17
2019-06-26T08:07:13.581Z,1018.16
2019-06-26T08:08:14.877Z,1018.12
2019-06-26T08:09:13.567Z,1018.17
2019-06-26T08:10:13.551Z,1018.14
2019-06-26T08:11:13.539Z,1018.12
2019-06-26T08:12:13.527Z,1018.21
2019-06-26T08:13:13.528Z,1018.22
2019-06-26T08:14:13.524Z,1018.23
2019-06-26T08:15:13.596Z,1018.31
2019-06-26T08:16:13.550Z,1018.22
2019-06-26T08:17:13.564Z,1018.19
2019-06-26T08:18:13.475Z,1018.21
2019-06-26T08:19:13.502Z,1018.16
2019-06-26T08:20:13.459Z,1018.16
2019-06-26T08:21:13.454Z,1018.20
2019-06-26T08:22:13.516Z,1018.12
2019-06-26T08:23:13.458Z,1018.15
2019-06-26T08:24:13.421Z,1018.12
2019-06-26T08:25:13.404Z,1018.13
2019-06-26T08:26:13.383Z,1018.25
2019-06-26T08:27:13.402Z,1018.31
2019-06-26T08:28:13.434Z,1018.38
2019-06-26T08:29:13.468Z,1018.35
2019-06-26T08:30:13.582Z,1018.32
2019-06-26T08:31:13.379Z,1018.22
2019-06-26T08:32:13.320Z,1018.24
2019-06-26T08:33:13.316Z,1018.19
2019-06-26T08:34:13.308Z,1018.23
2019-06-26T08:35:13.347Z,1018.28
2019-06-26T08:36:13.280Z,1018.35
2019-06-26T08:37:13.344Z,1018.31
2019-06-26T08:38:15.599Z,1018.23
2019-06-26T08:39:13.316Z,1018.22
2019-06-26T08:40:13.399Z,1018.28
2019-06-26T08:41:13.231Z,1018.23
2019-06-26T08:42:13.219Z,1018.29
2019-06-26T08:43:13.223Z,1018.19
2019-06-26T08:44:13.200Z,1018.23
2019-06-26T08:45:13.198Z,1018.27
2019-06-26T08:46:13.174Z,1018.32
2019-06-26T08:47:13.168Z,1018.26
2019-06-26T08:48:19.358Z,1018.28
2019-06-26T08:49:25.074Z,1018.31
2019-06-26T08:50:14.150Z,1018.25
2019-06-26T08:51:13.124Z,1018.34
2019-06-26T08:52:13.119Z,1018.40
2019-06-26T08:53:13.110Z,1018.34
2019-06-26T08:54:13.100Z,1018.41
2019-06-26T08:55:13.093Z,1018.41
2019-06-26T08:56:13.076Z,1018.48
2019-06-26T08:57:13.064Z,1018.45
2019-06-26T08:58:13.052Z,1018.52
2019-06-26T08:59:13.043Z,1018.43
2019-06-26T09:00:13.046Z,1018.57
2019-06-26T09:01:13.031Z,1018.53
2019-06-26T09:02:13.021Z,1018.61
2019-06-26T09:03:13.002Z,1018.65
2019-06-26T09:04:12.995Z,1018.67
2019-06-26T09:05:12.993Z,1018.66
2019-06-26T09:06:12.973Z,1018.70
2019-06-26T09:07:12.963Z,1018.64
2019-06-26T09:08:13.052Z,1018.70
2019-06-26T09:09:12.947Z,1018.72
2019-06-26T09:10:12.944Z,1018.71
2019-06-26T09:11:12.925Z,1018.67
2019-06-26T09:12:12.915Z,1018.66
2019-06-26T09:13:12.906Z,1018.72
2019-06-26T09:14:12.896Z,1018.69
2019-06-26T09:15:12.904Z,1018.72
2019-06-26T09:16:12.886Z,1018.71
2019-06-26T09:17:12.869Z,1018.66
2019-06-26T09:18:12.895Z,1018.70
2019-06-26T09:19:12.854Z,1018.72
2019-06-26T09:20:12.947Z,1018.73
2019-06-26T09:21:12.889Z,1018.70
2019-06-26T09:22:12.821Z,1018.70
2019-06-26T09:23:12.811Z,1018.72
2019-06-26T09:24:12.801Z,1018.70
2019-06-26T09:25:21.756Z,1018.72
2019-06-26T09:26:13.783Z,1018.68
2019-06-26T09:27:14.988Z,1018.63
2019-06-26T09:28:12.783Z,1018.59
2019-06-26T09:29:12.775Z,1018.62
2019-06-26T09:30:12.898Z,1018.70
2019-06-26T09:31:12.737Z,1018.65
2019-06-26T09:32:12.742Z,1018.66
2019-06-26T09:33:12.721Z,1018.66
2019-06-26T09:34:12.720Z,1018.65
2019-06-26T09:35:12.715Z,1018.74
2019-06-26T09:36:12.703Z,1018.78
2019-06-26T09:37:12.686Z,1018.72
2019-06-26T09:38:12.825Z,1018.75
2019-06-26T09:39:12.665Z,1018.76
2019-06-26T09:40:12.658Z,1018.81
2019-06-26T09:41:12.654Z,1018.73
2019-06-26T09:42:12.640Z,1018.79
2019-06-26T09:43:12.628Z,1018.78
2019-06-26T09:44:12.621Z,1018.85
2019-06-26T09:45:12.626Z,1018.84
2019-06-26T09:46:12.609Z,1018.84
2019-06-26T09:47:15.605Z,1018.82
2019-06-26T09:48:12.583Z,1018.84
2019-06-26T09:49:12.611Z,1018.83
2019-06-26T09:50:12.564Z,1018.83
2019-06-26T09:51:12.565Z,1018.81
2019-06-26T09:52:12.605Z,1018.82
2019-06-26T09:53:12.625Z,1018.79
2019-06-26T09:54:12.536Z,1018.78
2019-06-26T09:55:12.521Z,1018.81
2019-06-26T09:56:12.539Z,1018.81
2019-06-26T09:57:12.503Z,1018.85
2019-06-26T09:58:13.489Z,1018.86
2019-06-26T09:59:12.487Z,1018.76
2019-06-26T10:00:12.483Z,1018.80
2019-06-26T10:01:12.659Z,1018.76
2019-06-26T10:02:12.461Z,1018.83
2019-06-26T10:03:12.451Z,1018.82
2019-06-26T10:04:12.489Z,1018.79
2019-06-26T10:05:12.434Z,1018.74
2019-06-26T10:06:12.438Z,1018.77
2019-06-26T10:07:12.427Z,1018.82
2019-06-26T10:08:12.412Z,1018.75
2019-06-26T10:09:12.400Z,1018.84
2019-06-26T10:10:12.399Z,1018.80
2019-06-26T10:11:12.412Z,1018.81
2019-06-26T10:12:12.374Z,1018.79
2019-06-26T10:13:12.417Z,1018.87
2019-06-26T10:14:12.357Z,1018.82
2019-06-26T10:15:12.348Z,1018.83
2019-06-26T10:16:12.354Z,1018.80
2019-06-26T10:17:12.333Z,1018.88
2019-06-26T10:18:12.326Z,1018.82
2019-06-26T10:19:12.317Z,1018.85
2019-06-26T10:20:12.316Z,1018.88
2019-06-26T10:21:12.301Z,1018.88
2019-06-26T10:22:12.317Z,1018.87
2019-06-26T10:23:12.282Z,1018.93
2019-06-26T10:24:12.276Z,1018.98
2019-06-26T10:25:12.278Z,1018.96
2019-06-26T10:26:12.261Z,1018.92
2019-06-26T10:27:12.259Z,1018.99
2019-06-26T10:28:12.246Z,1018.95
2019-06-26T10:29:12.242Z,1018.88
2019-06-26T10:30:12.225Z,1018.97
2019-06-26T10:31:12.216Z,1019.01
2019-06-26T10:32:12.218Z,1018.99
2019-06-26T10:33:12.200Z,1018.99
2019-06-26T10:34:12.194Z,1018.97
2019-06-26T10:35:12.184Z,1019.03
2019-06-26T10:36:12.177Z,1018.99
2019-06-26T10:37:12.175Z,1018.98
2019-06-26T10:38:12.158Z,1018.95
2019-06-26T10:39:12.262Z,1018.97
2019-06-26T10:40:15.988Z,1018.98
2019-06-26T10:41:12.150Z,1018.93
2019-06-26T10:42:12.142Z,1018.96
2019-06-26T10:43:12.127Z,1019.00
2019-06-26T10:44:12.111Z,1019.01
2019-06-26T10:45:12.252Z,1019.01
2019-06-26T10:46:12.136Z,1018.91
2019-06-26T10:47:12.103Z,1018.98
2019-06-26T10:48:12.088Z,1018.95
2019-06-26T10:49:25.806Z,1018.87
2019-06-26T10:50:13.063Z,1018.91
2019-06-26T10:51:12.053Z,1018.86
2019-06-26T10:52:12.043Z,1018.90
2019-06-26T10:53:12.048Z,1018.74
2019-06-26T10:54:12.035Z,1018.68
2019-06-26T10:55:12.039Z,1018.72
2019-06-26T10:56:12.022Z,1018.71
2019-06-26T10:57:12.002Z,1018.73
2019-06-26T10:58:12.150Z,1018.70
2019-06-26T10:59:11.985Z,1018.72
2019-06-26T11:00:11.984Z,1018.79
2019-06-26T11:01:11.969Z,1018.76
2019-06-26T11:02:11.964Z,1018.84
2019-06-26T11:03:11.961Z,1018.89
2019-06-26T11:04:11.947Z,1018.89
2019-06-26T11:05:11.948Z,1018.87
2019-06-26T11:06:11.931Z,1018.74
2019-06-26T11:07:11.931Z,1018.90
2019-06-26T11:08:11.958Z,1018.82
2019-06-26T11:09:11.907Z,1018.85
2019-06-26T11:10:11.907Z,1018.84
2019-06-26T11:11:11.887Z,1018.85
2019-06-26T11:12:12.039Z,1018.82
2019-06-26T11:13:11.939Z,1018.82
2019-06-26T11:14:11.862Z,1018.75
2019-06-26T11:15:11.863Z,1018.80
2019-06-26T11:16:11.860Z,1018.80
2019-06-26T11:17:11.845Z,1018.89
2019-06-26T11:18:11.840Z,1018.85
2019-06-26T11:19:11.824Z,1018.85
2019-06-26T11:20:11.823Z,1018.82
2019-06-26T11:21:11.810Z,1018.78
2019-06-26T11:22:11.813Z,1018.81
2019-06-26T11:23:11.796Z,1018.69
2019-06-26T11:24:11.779Z,1018.72
2019-06-26T11:25:11.884Z,1018.68
2019-06-26T11:26:11.856Z,1018.63
2019-06-26T11:27:11.820Z,1018.53
2019-06-26T11:28:11.987Z,1018.54
2019-06-26T11:29:11.748Z,1018.49
2019-06-26T11:30:11.821Z,1018.56
2019-06-26T11:31:11.786Z,1018.49
2019-06-26T11:32:11.808Z,1018.48
2019-06-26T11:33:11.795Z,1018.49
2019-06-26T11:34:11.772Z,1018.42
2019-06-26T11:35:11.739Z,1018.48
2019-06-26T11:36:11.722Z,1018.51
2019-06-26T11:37:11.738Z,1018.46
2019-06-26T11:38:11.853Z,1018.39
2019-06-26T11:39:11.711Z,1018.37
2019-06-26T11:40:11.779Z,1018.49
2019-06-26T11:41:11.735Z,1018.35
2019-06-26T11:42:11.704Z,1018.35
2019-06-26T11:43:11.852Z,1018.37
2019-06-26T11:44:11.600Z,1018.41
2019-06-26T11:45:11.600Z,1018.41
2019-06-26T11:46:11.579Z,1018.37
2019-06-26T11:47:11.620Z,1018.38
2019-06-26T11:48:11.566Z,1018.40
2019-06-26T11:49:11.582Z,1018.38
2019-06-26T11:50:11.633Z,1018.45
2019-06-26T11:51:11.529Z,1018.37
2019-06-26T11:52:11.532Z,1018.39
2019-06-26T11:53:11.583Z,1018.40
2019-06-26T11:54:11.501Z,1018.37
2019-06-26T11:55:11.491Z,1018.44
2019-06-26T11:56:11.530Z,1018.45
2019-06-26T11:57:11.477Z,1018.34
2019-06-26T11:58:11.562Z,1018.39
2019-06-26T11:59:11.463Z,1018.32
2019-06-26T12:00:11.542Z,1018.28
2019-06-26T12:01:11.444Z,1018.35
2019-06-26T12:02:11.429Z,1018.29
2019-06-26T12:03:13.319Z,1018.36
2019-06-26T12:04:11.419Z,1018.31
2019-06-26T12:05:11.407Z,1018.27